sensor_id;sensor_type;location;lat;lon;timestamp;temperature;humidity
5023;DHT22;2530;47.990;7.866;2023-03-23T00:01:58;12.30;1.00
5023;DHT22;2530;47.990;7.866;2023-03-23T00:04:24;12.30;99.90
5023;DHT22;2530;47.990;7.866;2023-03-23T00:06:51;12.30;1.00
5023;DHT22;2530;47.990;7.866;2023-03-23T00:09:17;12.30;1.00
5023;DHT22;2530;47.990;7.866;2023-03-23T00:11:48;12.30;1.00
5023;DHT22;2530;47.990;7.866;2023-03-23T00:14:14;12.30;1.00
5023;DHT22;2530;47.990;7.866;2023-03-23T00:16:40;12.20;1.00
5023;DHT22;2530;47.990;7.866;2023-03-23T00:19:11;12.30;1.00
5023;DHT22;2530;47.990;7.866;2023-03-23T00:21:42;12.40;1.00
5023;DHT22;2530;47.990;7.866;2023-03-23T00:24:09;12.40;1.00
5023;DHT22;2530;47.990;7.866;2023-03-23T00:26:37;12.40;1.00
5023;DHT22;2530;47.990;7.866;2023-03-23T00:29:26;12.50;99.90
5023;DHT22;2530;47.990;7.866;2023-03-23T00:31:51;12.50;26.90
5023;DHT22;2530;47.990;7.866;2023-03-23T00:34:21;12.50;1.00
5023;DHT22;2530;47.990;7.866;2023-03-23T00:36:49;12.40;1.00
5023;DHT22;2530;47.990;7.866;2023-03-23T00:39:15;12.50;64.80
5023;DHT22;2530;47.990;7.866;2023-03-23T00:41:43;12.60;1.00
5023;DHT22;2530;47.990;7.866;2023-03-23T00:44:08;12.70;99.90
5023;DHT22;2530;47.990;7.866;2023-03-23T00:46:34;12.70;21.40
5023;DHT22;2530;47.990;7.866;2023-03-23T00:49:12;12.60;99.90
5023;DHT22;2530;47.990;7.866;2023-03-23T00:51:39;12.60;99.90
5023;DHT22;2530;47.990;7.866;2023-03-23T00:54:04;12.60;1.00
5023;DHT22;2530;47.990;7.866;2023-03-23T00:56:30;12.60;1.00
5023;DHT22;2530;47.990;7.866;2023-03-23T00:58:56;12.70;99.90
5023;DHT22;2530;47.990;7.866;2023-03-23T01:01:21;13.30;99.90
5023;DHT22;2530;47.990;7.866;2023-03-23T01:03:47;13.10;99.90
5023;DHT22;2530;47.990;7.866;2023-03-23T01:06:12;13.10;1.00
5023;DHT22;2530;47.990;7.866;2023-03-23T01:08:39;13.00;99.90
5023;DHT22;2530;47.990;7.866;2023-03-23T01:11:13;13.40;99.90
5023;DHT22;2530;47.990;7.866;2023-03-23T01:13:39;13.60;1.00
5023;DHT22;2530;47.990;7.866;2023-03-23T01:16:05;13.90;1.00
5023;DHT22;2530;47.990;7.866;2023-03-23T01:18:31;14.30;99.90
5023;DHT22;2530;47.990;7.866;2023-03-23T01:20:57;14.90;1.00
5023;DHT22;2530;47.990;7.866;2023-03-23T01:23:22;15.10;1.00
5023;DHT22;2530;47.990;7.866;2023-03-23T01:25:48;15.50;1.00
5023;DHT22;2530;47.990;7.866;2023-03-23T01:28:14;15.50;1.00
5023;DHT22;2530;47.990;7.866;2023-03-23T01:30:40;15.50;1.00
5023;DHT22;2530;47.990;7.866;2023-03-23T01:33:06;15.50;1.00
5023;DHT22;2530;47.990;7.866;2023-03-23T01:35:31;15.80;1.00
5023;DHT22;2530;47.990;7.866;2023-03-23T01:37:57;15.70;1.00
5023;DHT22;2530;47.990;7.866;2023-03-23T01:40:22;15.90;1.00
5023;DHT22;2530;47.990;7.866;2023-03-23T01:42:48;15.90;1.00
5023;DHT22;2530;47.990;7.866;2023-03-23T01:47:52;15.90;99.90
5023;DHT22;2530;47.990;7.866;2023-03-23T01:50:21;16.20;99.90
5023;DHT22;2530;47.990;7.866;2023-03-23T01:52:50;16.30;99.90
5023;DHT22;2530;47.990;7.866;2023-03-23T01:55:18;16.30;99.90
5023;DHT22;2530;47.990;7.866;2023-03-23T01:57:44;16.20;99.90
5023;DHT22;2530;47.990;7.866;2023-03-23T02:00:10;16.40;99.90
5023;DHT22;2530;47.990;7.866;2023-03-23T02:02:42;16.30;99.90
5023;DHT22;2530;47.990;7.866;2023-03-23T02:05:14;16.20;99.90
5023;DHT22;2530;47.990;7.866;2023-03-23T02:07:41;16.40;99.90
5023;DHT22;2530;47.990;7.866;2023-03-23T02:10:08;16.60;99.90
5023;DHT22;2530;47.990;7.866;2023-03-23T02:12:33;16.60;99.90
5023;DHT22;2530;47.990;7.866;2023-03-23T02:15:00;16.70;99.90
5023;DHT22;2530;47.990;7.866;2023-03-23T02:18:07;16.70;99.90
5023;DHT22;2530;47.990;7.866;2023-03-23T02:26:19;16.70;99.90
5023;DHT22;2530;47.990;7.866;2023-03-23T02:32:00;16.70;99.90
5023;DHT22;2530;47.990;7.866;2023-03-23T02:34:30;16.70;99.90
5023;DHT22;2530;47.990;7.866;2023-03-23T02:37:04;16.70;99.90
5023;DHT22;2530;47.990;7.866;2023-03-23T02:39:44;16.70;99.90
5023;DHT22;2530;47.990;7.866;2023-03-23T02:42:15;16.60;99.90
5023;DHT22;2530;47.990;7.866;2023-03-23T02:44:44;16.60;99.90
5023;DHT22;2530;47.990;7.866;2023-03-23T02:47:19;16.70;99.90
5023;DHT22;2530;47.990;7.866;2023-03-23T02:49:48;16.70;99.90
5023;DHT22;2530;47.990;7.866;2023-03-23T02:52:20;16.80;99.90
5023;DHT22;2530;47.990;7.866;2023-03-23T02:54:48;16.70;99.90
5023;DHT22;2530;47.990;7.866;2023-03-23T02:57:14;16.70;99.90
5023;DHT22;2530;47.990;7.866;2023-03-23T02:59:41;16.80;99.90
5023;DHT22;2530;47.990;7.866;2023-03-23T03:02:11;16.60;99.90
5023;DHT22;2530;47.990;7.866;2023-03-23T03:04:39;16.50;99.90
5023;DHT22;2530;47.990;7.866;2023-03-23T03:09:46;16.60;99.90
5023;DHT22;2530;47.990;7.866;2023-03-23T03:12:24;16.50;99.90
5023;DHT22;2530;47.990;7.866;2023-03-23T03:17:36;16.70;99.90
5023;DHT22;2530;47.990;7.866;2023-03-23T03:20:06;16.70;99.90
5023;DHT22;2530;47.990;7.866;2023-03-23T03:22:38;17.00;99.90
5023;DHT22;2530;47.990;7.866;2023-03-23T03:25:05;17.10;99.90
5023;DHT22;2530;47.990;7.866;2023-03-23T03:27:32;17.20;99.90
5023;DHT22;2530;47.990;7.866;2023-03-23T03:29:59;17.20;99.90
5023;DHT22;2530;47.990;7.866;2023-03-23T03:32:34;17.10;99.90
5023;DHT22;2530;47.990;7.866;2023-03-23T03:35:02;17.30;99.90
5023;DHT22;2530;47.990;7.866;2023-03-23T03:37:34;17.20;99.90
5023;DHT22;2530;47.990;7.866;2023-03-23T03:40:06;17.20;99.90
5023;DHT22;2530;47.990;7.866;2023-03-23T03:42:37;17.10;99.90
5023;DHT22;2530;47.990;7.866;2023-03-23T03:45:03;17.10;99.90
5023;DHT22;2530;47.990;7.866;2023-03-23T03:47:29;17.00;99.90
5023;DHT22;2530;47.990;7.866;2023-03-23T03:49:54;17.10;99.90
5023;DHT22;2530;47.990;7.866;2023-03-23T03:52:20;16.90;99.90
5023;DHT22;2530;47.990;7.866;2023-03-23T03:54:46;17.00;99.90
5023;DHT22;2530;47.990;7.866;2023-03-23T03:57:12;17.00;99.90
5023;DHT22;2530;47.990;7.866;2023-03-23T03:59:38;17.00;99.90
5023;DHT22;2530;47.990;7.866;2023-03-23T04:02:03;17.00;99.90
5023;DHT22;2530;47.990;7.866;2023-03-23T04:04:29;17.00;99.90
5023;DHT22;2530;47.990;7.866;2023-03-23T04:06:54;17.00;99.90
5023;DHT22;2530;47.990;7.866;2023-03-23T04:09:20;17.00;99.90
5023;DHT22;2530;47.990;7.866;2023-03-23T04:11:46;17.00;99.90
5023;DHT22;2530;47.990;7.866;2023-03-23T04:14:12;17.00;99.90
5023;DHT22;2530;47.990;7.866;2023-03-23T04:16:37;17.00;99.90
5023;DHT22;2530;47.990;7.866;2023-03-23T04:19:03;17.10;99.90
5023;DHT22;2530;47.990;7.866;2023-03-23T04:21:29;17.10;99.90
5023;DHT22;2530;47.990;7.866;2023-03-23T04:23:58;17.00;99.90
5023;DHT22;2530;47.990;7.866;2023-03-23T04:26:27;17.00;99.90
5023;DHT22;2530;47.990;7.866;2023-03-23T04:28:54;17.00;99.90
5023;DHT22;2530;47.990;7.866;2023-03-23T04:31:20;16.90;99.90
5023;DHT22;2530;47.990;7.866;2023-03-23T04:33:46;16.90;99.90
5023;DHT22;2530;47.990;7.866;2023-03-23T04:36:12;17.00;99.90
5023;DHT22;2530;47.990;7.866;2023-03-23T04:38:41;17.10;99.90
5023;DHT22;2530;47.990;7.866;2023-03-23T04:41:08;17.20;99.90
5023;DHT22;2530;47.990;7.866;2023-03-23T04:43:33;17.20;99.90
5023;DHT22;2530;47.990;7.866;2023-03-23T04:46:07;17.10;99.90
5023;DHT22;2530;47.990;7.866;2023-03-23T04:48:34;17.10;99.90
5023;DHT22;2530;47.990;7.866;2023-03-23T04:51:02;17.00;99.90
5023;DHT22;2530;47.990;7.866;2023-03-23T04:53:31;17.00;99.90
5023;DHT22;2530;47.990;7.866;2023-03-23T04:55:56;17.10;99.90
5023;DHT22;2530;47.990;7.866;2023-03-23T04:58:22;17.00;99.90
5023;DHT22;2530;47.990;7.866;2023-03-23T05:00:50;17.00;99.90
5023;DHT22;2530;47.990;7.866;2023-03-23T05:03:19;16.90;99.90
5023;DHT22;2530;47.990;7.866;2023-03-23T05:05:46;17.00;99.90
5023;DHT22;2530;47.990;7.866;2023-03-23T05:08:13;16.90;99.90
5023;DHT22;2530;47.990;7.866;2023-03-23T05:10:39;16.90;99.90
5023;DHT22;2530;47.990;7.866;2023-03-23T05:13:04;16.80;99.90
5023;DHT22;2530;47.990;7.866;2023-03-23T05:15:30;16.80;99.90
5023;DHT22;2530;47.990;7.866;2023-03-23T05:17:56;16.80;99.90
5023;DHT22;2530;47.990;7.866;2023-03-23T05:20:22;16.80;99.90
5023;DHT22;2530;47.990;7.866;2023-03-23T05:22:48;16.70;99.90
5023;DHT22;2530;47.990;7.866;2023-03-23T05:25:15;16.70;99.90
5023;DHT22;2530;47.990;7.866;2023-03-23T05:27:44;16.60;99.90
5023;DHT22;2530;47.990;7.866;2023-03-23T05:30:14;16.60;99.90
5023;DHT22;2530;47.990;7.866;2023-03-23T05:32:44;16.60;99.90
5023;DHT22;2530;47.990;7.866;2023-03-23T05:35:12;16.40;99.90
5023;DHT22;2530;47.990;7.866;2023-03-23T05:37:38;16.40;99.90
5023;DHT22;2530;47.990;7.866;2023-03-23T05:40:04;16.40;99.90
5023;DHT22;2530;47.990;7.866;2023-03-23T05:42:35;16.30;99.90
5023;DHT22;2530;47.990;7.866;2023-03-23T05:45:02;16.30;99.90
5023;DHT22;2530;47.990;7.866;2023-03-23T05:47:28;16.30;99.90
5023;DHT22;2530;47.990;7.866;2023-03-23T05:49:54;16.40;99.90
5023;DHT22;2530;47.990;7.866;2023-03-23T05:52:20;16.40;99.90
5023;DHT22;2530;47.990;7.866;2023-03-23T05:54:46;16.30;99.90
5023;DHT22;2530;47.990;7.866;2023-03-23T05:57:11;16.30;99.90
5023;DHT22;2530;47.990;7.866;2023-03-23T05:59:37;16.30;99.90
5023;DHT22;2530;47.990;7.866;2023-03-23T06:02:04;16.20;99.90
5023;DHT22;2530;47.990;7.866;2023-03-23T06:04:30;16.20;99.90
5023;DHT22;2530;47.990;7.866;2023-03-23T06:07:00;16.20;99.90
5023;DHT22;2530;47.990;7.866;2023-03-23T06:09:26;16.10;99.90
5023;DHT22;2530;47.990;7.866;2023-03-23T06:11:51;16.10;99.90
5023;DHT22;2530;47.990;7.866;2023-03-23T06:14:17;16.10;99.90
5023;DHT22;2530;47.990;7.866;2023-03-23T06:16:43;16.10;99.90
5023;DHT22;2530;47.990;7.866;2023-03-23T06:19:08;16.00;99.90
5023;DHT22;2530;47.990;7.866;2023-03-23T06:21:34;15.90;99.90
5023;DHT22;2530;47.990;7.866;2023-03-23T06:24:00;15.80;99.90
5023;DHT22;2530;47.990;7.866;2023-03-23T06:26:38;15.80;99.90
5023;DHT22;2530;47.990;7.866;2023-03-23T06:29:05;15.70;99.90
5023;DHT22;2530;47.990;7.866;2023-03-23T06:31:43;15.70;99.90
5023;DHT22;2530;47.990;7.866;2023-03-23T06:34:10;15.60;99.90
5023;DHT22;2530;47.990;7.866;2023-03-23T06:36:36;15.60;99.90
5023;DHT22;2530;47.990;7.866;2023-03-23T06:39:03;15.60;99.90
5023;DHT22;2530;47.990;7.866;2023-03-23T06:41:32;15.50;1.00
5023;DHT22;2530;47.990;7.866;2023-03-23T06:43:59;15.60;99.90
5023;DHT22;2530;47.990;7.866;2023-03-23T06:46:25;15.70;99.90
5023;DHT22;2530;47.990;7.866;2023-03-23T06:48:51;15.70;99.90
5023;DHT22;2530;47.990;7.866;2023-03-23T06:51:17;15.80;99.90
5023;DHT22;2530;47.990;7.866;2023-03-23T06:53:43;15.70;99.90
5023;DHT22;2530;47.990;7.866;2023-03-23T06:56:10;15.80;99.90
5023;DHT22;2530;47.990;7.866;2023-03-23T06:58:37;15.80;99.90
5023;DHT22;2530;47.990;7.866;2023-03-23T07:01:03;15.80;99.90
5023;DHT22;2530;47.990;7.866;2023-03-23T07:03:29;15.70;99.90
5023;DHT22;2530;47.990;7.866;2023-03-23T07:05:56;15.60;99.90
5023;DHT22;2530;47.990;7.866;2023-03-23T07:08:22;15.70;99.90
5023;DHT22;2530;47.990;7.866;2023-03-23T07:10:50;15.70;99.90
5023;DHT22;2530;47.990;7.866;2023-03-23T07:13:17;15.80;99.90
5023;DHT22;2530;47.990;7.866;2023-03-23T07:15:43;15.80;99.90
5023;DHT22;2530;47.990;7.866;2023-03-23T07:18:09;15.70;99.90
5023;DHT22;2530;47.990;7.866;2023-03-23T07:20:35;15.70;1.00
5023;DHT22;2530;47.990;7.866;2023-03-23T07:23:01;15.60;1.00
5023;DHT22;2530;47.990;7.866;2023-03-23T07:25:27;15.60;1.00
5023;DHT22;2530;47.990;7.866;2023-03-23T07:27:53;15.60;1.00
5023;DHT22;2530;47.990;7.866;2023-03-23T07:30:18;15.50;1.00
5023;DHT22;2530;47.990;7.866;2023-03-23T07:32:44;15.50;1.00
5023;DHT22;2530;47.990;7.866;2023-03-23T07:35:10;15.40;99.90
5023;DHT22;2530;47.990;7.866;2023-03-23T07:37:38;15.30;99.90
5023;DHT22;2530;47.990;7.866;2023-03-23T07:40:07;15.20;27.80
5023;DHT22;2530;47.990;7.866;2023-03-23T07:42:37;15.00;21.20
5023;DHT22;2530;47.990;7.866;2023-03-23T07:45:03;15.00;99.90
5023;DHT22;2530;47.990;7.866;2023-03-23T07:47:29;14.80;93.80
5023;DHT22;2530;47.990;7.866;2023-03-23T07:49:55;14.60;99.90
5023;DHT22;2530;47.990;7.866;2023-03-23T07:52:21;14.40;99.90
5023;DHT22;2530;47.990;7.866;2023-03-23T07:54:46;14.40;1.00
5023;DHT22;2530;47.990;7.866;2023-03-23T07:57:12;14.20;1.00
5023;DHT22;2530;47.990;7.866;2023-03-23T07:59:37;14.10;99.90
5023;DHT22;2530;47.990;7.866;2023-03-23T08:02:03;14.00;99.90
5023;DHT22;2530;47.990;7.866;2023-03-23T08:04:29;14.10;1.00
5023;DHT22;2530;47.990;7.866;2023-03-23T08:06:54;14.10;54.50
5023;DHT22;2530;47.990;7.866;2023-03-23T08:09:20;14.10;99.90
5023;DHT22;2530;47.990;7.866;2023-03-23T08:11:45;14.10;1.00
5023;DHT22;2530;47.990;7.866;2023-03-23T08:14:13;14.00;1.00
5023;DHT22;2530;47.990;7.866;2023-03-23T08:16:38;14.00;1.00
5023;DHT22;2530;47.990;7.866;2023-03-23T08:19:11;14.10;99.90
5023;DHT22;2530;47.990;7.866;2023-03-23T08:21:48;14.10;1.00
5023;DHT22;2530;47.990;7.866;2023-03-23T08:24:14;14.00;1.00
5023;DHT22;2530;47.990;7.866;2023-03-23T08:26:40;14.70;1.00
5023;DHT22;2530;47.990;7.866;2023-03-23T08:29:07;14.10;1.00
5023;DHT22;2530;47.990;7.866;2023-03-23T08:31:35;14.70;1.00
5023;DHT22;2530;47.990;7.866;2023-03-23T08:34:03;14.80;1.00
5023;DHT22;2530;47.990;7.866;2023-03-23T08:36:31;13.90;1.00
5023;DHT22;2530;47.990;7.866;2023-03-23T08:38:57;14.70;1.00
5023;DHT22;2530;47.990;7.866;2023-03-23T08:41:23;13.90;1.00
5023;DHT22;2530;47.990;7.866;2023-03-23T08:43:49;14.00;1.00
5023;DHT22;2530;47.990;7.866;2023-03-23T08:46:18;13.90;73.60
5023;DHT22;2530;47.990;7.866;2023-03-23T08:48:45;14.10;1.00
5023;DHT22;2530;47.990;7.866;2023-03-23T08:52:06;14.00;1.00
5023;DHT22;2530;47.990;7.866;2023-03-23T08:54:21;13.60;1.00
5023;DHT22;2530;47.990;7.866;2023-03-23T08:57:26;13.90;1.00
5023;DHT22;2530;47.990;7.866;2023-03-23T09:02:59;13.60;99.90
5023;DHT22;2530;47.990;7.866;2023-03-23T09:06:31;14.00;99.90
5023;DHT22;2530;47.990;7.866;2023-03-23T09:26:54;14.60;25.60
5023;DHT22;2530;47.990;7.866;2023-03-23T09:30:07;15.20;18.70
5023;DHT22;2530;47.990;7.866;2023-03-23T09:54:19;16.20;1.00
5023;DHT22;2530;47.990;7.866;2023-03-23T10:07:41;16.20;99.60
5023;DHT22;2530;47.990;7.866;2023-03-23T10:14:30;16.60;1.00
5023;DHT22;2530;47.990;7.866;2023-03-23T10:24:31;16.80;1.00
5023;DHT22;2530;47.990;7.866;2023-03-23T10:41:18;17.60;99.90
5023;DHT22;2530;47.990;7.866;2023-03-23T10:50:57;17.50;99.90
5023;DHT22;2530;47.990;7.866;2023-03-23T10:54:23;17.70;99.90
5023;DHT22;2530;47.990;7.866;2023-03-23T11:05:02;18.20;99.90
5023;DHT22;2530;47.990;7.866;2023-03-23T11:24:55;17.60;99.90
5023;DHT22;2530;47.990;7.866;2023-03-23T11:27:57;17.70;99.90
5023;DHT22;2530;47.990;7.866;2023-03-23T11:56:57;18.10;99.90
5023;DHT22;2530;47.990;7.866;2023-03-23T13:29:46;17.50;99.90
5023;DHT22;2530;47.990;7.866;2023-03-23T13:32:16;17.50;99.90
5023;DHT22;2530;47.990;7.866;2023-03-23T13:34:42;17.40;99.90
5023;DHT22;2530;47.990;7.866;2023-03-23T13:37:20;17.40;99.90
5023;DHT22;2530;47.990;7.866;2023-03-23T13:42:36;17.50;99.90
5023;DHT22;2530;47.990;7.866;2023-03-23T13:47:44;17.60;99.90
5023;DHT22;2530;47.990;7.866;2023-03-23T13:50:25;17.60;99.90
5023;DHT22;2530;47.990;7.866;2023-03-23T13:53:00;17.70;99.90
5023;DHT22;2530;47.990;7.866;2023-03-23T14:03:31;17.70;99.90
5023;DHT22;2530;47.990;7.866;2023-03-23T14:10:57;17.60;99.90
5023;DHT22;2530;47.990;7.866;2023-03-23T14:16:17;17.30;99.90
5023;DHT22;2530;47.990;7.866;2023-03-23T14:21:34;17.30;99.90
5023;DHT22;2530;47.990;7.866;2023-03-23T14:24:08;17.10;99.90
5023;DHT22;2530;47.990;7.866;2023-03-23T14:26:35;17.10;99.90
5023;DHT22;2530;47.990;7.866;2023-03-23T14:29:01;17.10;99.90
5023;DHT22;2530;47.990;7.866;2023-03-23T14:31:27;17.00;99.90
5023;DHT22;2530;47.990;7.866;2023-03-23T14:33:54;17.00;99.90
5023;DHT22;2530;47.990;7.866;2023-03-23T14:36:29;16.90;99.90
5023;DHT22;2530;47.990;7.866;2023-03-23T14:39:07;16.90;99.90
5023;DHT22;2530;47.990;7.866;2023-03-23T14:41:38;17.00;99.90
5023;DHT22;2530;47.990;7.866;2023-03-23T14:44:07;16.90;99.90
5023;DHT22;2530;47.990;7.866;2023-03-23T14:46:34;16.90;99.90
5023;DHT22;2530;47.990;7.866;2023-03-23T14:49:02;16.90;99.90
5023;DHT22;2530;47.990;7.866;2023-03-23T14:51:29;17.00;99.90
5023;DHT22;2530;47.990;7.866;2023-03-23T14:53:55;17.00;99.90
5023;DHT22;2530;47.990;7.866;2023-03-23T14:56:22;17.00;99.90
5023;DHT22;2530;47.990;7.866;2023-03-23T14:58:50;17.00;99.90
5023;DHT22;2530;47.990;7.866;2023-03-23T15:01:19;16.90;99.90
5023;DHT22;2530;47.990;7.866;2023-03-23T15:03:53;16.90;99.90
5023;DHT22;2530;47.990;7.866;2023-03-23T15:06:22;17.00;99.90
5023;DHT22;2530;47.990;7.866;2023-03-23T15:08:50;16.90;99.90
5023;DHT22;2530;47.990;7.866;2023-03-23T15:13:51;17.00;99.90
5023;DHT22;2530;47.990;7.866;2023-03-23T15:16:33;17.00;99.90
5023;DHT22;2530;47.990;7.866;2023-03-23T15:19:04;17.00;99.90
5023;DHT22;2530;47.990;7.866;2023-03-23T15:21:33;17.10;99.90
5023;DHT22;2530;47.990;7.866;2023-03-23T15:24:17;17.20;99.90
5023;DHT22;2530;47.990;7.866;2023-03-23T15:26:44;17.20;99.90
5023;DHT22;2530;47.990;7.866;2023-03-23T15:29:16;17.10;99.90
5023;DHT22;2530;47.990;7.866;2023-03-23T15:31:45;17.10;99.90
5023;DHT22;2530;47.990;7.866;2023-03-23T15:34:24;17.00;99.90
5023;DHT22;2530;47.990;7.866;2023-03-23T15:37:01;16.90;99.90
5023;DHT22;2530;47.990;7.866;2023-03-23T15:39:28;17.00;99.90
5023;DHT22;2530;47.990;7.866;2023-03-23T15:41:55;17.00;99.90
5023;DHT22;2530;47.990;7.866;2023-03-23T15:44:30;17.00;99.90
5023;DHT22;2530;47.990;7.866;2023-03-23T15:47:22;17.00;99.90
5023;DHT22;2530;47.990;7.866;2023-03-23T15:50:02;17.00;99.90
5023;DHT22;2530;47.990;7.866;2023-03-23T15:52:28;17.00;99.90
5023;DHT22;2530;47.990;7.866;2023-03-23T15:54:54;17.10;99.90
5023;DHT22;2530;47.990;7.866;2023-03-23T15:57:19;17.10;99.90
5023;DHT22;2530;47.990;7.866;2023-03-23T15:59:45;17.10;99.90
5023;DHT22;2530;47.990;7.866;2023-03-23T16:02:17;17.20;99.90
5023;DHT22;2530;47.990;7.866;2023-03-23T16:04:43;17.10;99.90
5023;DHT22;2530;47.990;7.866;2023-03-23T16:07:08;17.30;99.90
5023;DHT22;2530;47.990;7.866;2023-03-23T16:09:38;17.40;99.90
5023;DHT22;2530;47.990;7.866;2023-03-23T16:12:10;17.40;99.90
5023;DHT22;2530;47.990;7.866;2023-03-23T16:14:38;17.30;99.90
5023;DHT22;2530;47.990;7.866;2023-03-23T16:17:03;17.50;99.90
5023;DHT22;2530;47.990;7.866;2023-03-23T16:19:29;17.50;99.90
5023;DHT22;2530;47.990;7.866;2023-03-23T16:21:55;17.50;99.90
5023;DHT22;2530;47.990;7.866;2023-03-23T16:24:20;17.50;99.90
5023;DHT22;2530;47.990;7.866;2023-03-23T16:26:46;17.50;99.90
5023;DHT22;2530;47.990;7.866;2023-03-23T16:29:13;17.50;99.90
5023;DHT22;2530;47.990;7.866;2023-03-23T16:31:39;17.50;99.90
5023;DHT22;2530;47.990;7.866;2023-03-23T16:34:05;17.40;99.90
5023;DHT22;2530;47.990;7.866;2023-03-23T16:36:31;17.40;99.90
5023;DHT22;2530;47.990;7.866;2023-03-23T16:38:57;17.50;99.90
5023;DHT22;2530;47.990;7.866;2023-03-23T16:41:22;17.40;99.90
5023;DHT22;2530;47.990;7.866;2023-03-23T16:43:48;17.40;99.90
5023;DHT22;2530;47.990;7.866;2023-03-23T16:46:13;17.40;99.90
5023;DHT22;2530;47.990;7.866;2023-03-23T16:48:39;17.40;99.90
5023;DHT22;2530;47.990;7.866;2023-03-23T16:51:05;17.40;99.90
5023;DHT22;2530;47.990;7.866;2023-03-23T16:53:30;17.40;99.90
5023;DHT22;2530;47.990;7.866;2023-03-23T16:55:57;17.40;99.90
5023;DHT22;2530;47.990;7.866;2023-03-23T16:58:23;17.40;99.90
5023;DHT22;2530;47.990;7.866;2023-03-23T17:00:50;17.30;99.90
5023;DHT22;2530;47.990;7.866;2023-03-23T17:03:18;17.20;99.90
5023;DHT22;2530;47.990;7.866;2023-03-23T17:05:46;17.20;99.90
5023;DHT22;2530;47.990;7.866;2023-03-23T17:08:12;17.20;99.90
5023;DHT22;2530;47.990;7.866;2023-03-23T17:10:39;17.20;99.90
5023;DHT22;2530;47.990;7.866;2023-03-23T17:13:05;17.30;99.90
5023;DHT22;2530;47.990;7.866;2023-03-23T17:15:31;17.20;99.90
5023;DHT22;2530;47.990;7.866;2023-03-23T17:17:57;17.20;99.90
5023;DHT22;2530;47.990;7.866;2023-03-23T17:20:22;17.20;99.90
5023;DHT22;2530;47.990;7.866;2023-03-23T17:22:48;17.10;99.90
5023;DHT22;2530;47.990;7.866;2023-03-23T17:25:14;17.10;99.90
5023;DHT22;2530;47.990;7.866;2023-03-23T17:27:41;17.20;99.90
5023;DHT22;2530;47.990;7.866;2023-03-23T17:30:08;17.20;99.90
5023;DHT22;2530;47.990;7.866;2023-03-23T17:32:34;17.10;99.90
5023;DHT22;2530;47.990;7.866;2023-03-23T17:35:01;17.10;99.90
5023;DHT22;2530;47.990;7.866;2023-03-23T17:37:26;17.10;99.90
5023;DHT22;2530;47.990;7.866;2023-03-23T17:39:52;17.10;99.90
5023;DHT22;2530;47.990;7.866;2023-03-23T17:42:17;17.10;99.90
5023;DHT22;2530;47.990;7.866;2023-03-23T17:44:43;17.20;99.90
5023;DHT22;2530;47.990;7.866;2023-03-23T17:47:09;17.30;99.90
5023;DHT22;2530;47.990;7.866;2023-03-23T17:49:35;17.30;99.90
5023;DHT22;2530;47.990;7.866;2023-03-23T17:52:01;17.30;99.90
5023;DHT22;2530;47.990;7.866;2023-03-23T17:54:26;17.30;99.90
5023;DHT22;2530;47.990;7.866;2023-03-23T17:56:54;17.40;99.90
5023;DHT22;2530;47.990;7.866;2023-03-23T17:59:22;17.30;99.90
5023;DHT22;2530;47.990;7.866;2023-03-23T18:01:49;17.20;99.90
5023;DHT22;2530;47.990;7.866;2023-03-23T18:04:15;17.20;99.90
5023;DHT22;2530;47.990;7.866;2023-03-23T18:06:41;17.10;99.90
5023;DHT22;2530;47.990;7.866;2023-03-23T18:09:06;17.10;99.90
5023;DHT22;2530;47.990;7.866;2023-03-23T18:11:32;17.20;99.90
5023;DHT22;2530;47.990;7.866;2023-03-23T18:13:58;17.30;99.90
5023;DHT22;2530;47.990;7.866;2023-03-23T18:16:23;17.20;99.90
5023;DHT22;2530;47.990;7.866;2023-03-23T18:18:49;17.20;99.90
5023;DHT22;2530;47.990;7.866;2023-03-23T18:21:15;17.20;99.90
5023;DHT22;2530;47.990;7.866;2023-03-23T18:23:41;16.90;99.90
5023;DHT22;2530;47.990;7.866;2023-03-23T18:26:08;16.80;99.90
5023;DHT22;2530;47.990;7.866;2023-03-23T18:28:35;16.90;99.90
5023;DHT22;2530;47.990;7.866;2023-03-23T18:31:03;16.90;99.90
5023;DHT22;2530;47.990;7.866;2023-03-23T18:33:28;16.80;99.90
5023;DHT22;2530;47.990;7.866;2023-03-23T18:35:58;16.70;99.90
5023;DHT22;2530;47.990;7.866;2023-03-23T18:38:24;16.70;99.90
5023;DHT22;2530;47.990;7.866;2023-03-23T18:40:50;16.80;99.90
5023;DHT22;2530;47.990;7.866;2023-03-23T18:43:16;16.80;99.90
5023;DHT22;2530;47.990;7.866;2023-03-23T18:45:48;16.50;99.90
5023;DHT22;2530;47.990;7.866;2023-03-23T18:48:13;16.20;99.90
5023;DHT22;2530;47.990;7.866;2023-03-23T18:50:39;16.10;1.00
5023;DHT22;2530;47.990;7.866;2023-03-23T18:53:05;15.90;1.00
5023;DHT22;2530;47.990;7.866;2023-03-23T18:55:31;15.90;1.00
5023;DHT22;2530;47.990;7.866;2023-03-23T18:57:56;15.80;51.90
5023;DHT22;2530;47.990;7.866;2023-03-23T19:00:24;15.70;99.90
5023;DHT22;2530;47.990;7.866;2023-03-23T19:02:51;15.50;1.00
5023;DHT22;2530;47.990;7.866;2023-03-23T19:05:17;15.40;99.90
5023;DHT22;2530;47.990;7.866;2023-03-23T19:07:42;15.30;1.00
5023;DHT22;2530;47.990;7.866;2023-03-23T19:10:08;15.30;99.90
5023;DHT22;2530;47.990;7.866;2023-03-23T19:12:34;15.40;1.00
5023;DHT22;2530;47.990;7.866;2023-03-23T19:15:00;15.30;1.00
5023;DHT22;2530;47.990;7.866;2023-03-23T19:17:25;15.40;1.00
5023;DHT22;2530;47.990;7.866;2023-03-23T19:19:51;15.30;1.00
5023;DHT22;2530;47.990;7.866;2023-03-23T19:22:16;15.30;1.00
5023;DHT22;2530;47.990;7.866;2023-03-23T19:24:42;15.30;1.00
5023;DHT22;2530;47.990;7.866;2023-03-23T19:27:08;15.30;1.00
5023;DHT22;2530;47.990;7.866;2023-03-23T19:29:33;15.30;1.00
5023;DHT22;2530;47.990;7.866;2023-03-23T19:31:59;15.30;58.20
5023;DHT22;2530;47.990;7.866;2023-03-23T19:34:33;15.30;99.90
5023;DHT22;2530;47.990;7.866;2023-03-23T19:36:59;15.20;99.90
5023;DHT22;2530;47.990;7.866;2023-03-23T19:39:24;15.30;99.90
5023;DHT22;2530;47.990;7.866;2023-03-23T19:41:50;15.20;14.60
5023;DHT22;2530;47.990;7.866;2023-03-23T19:44:16;15.20;99.90
5023;DHT22;2530;47.990;7.866;2023-03-23T19:46:41;15.20;99.90
5023;DHT22;2530;47.990;7.866;2023-03-23T19:49:07;15.20;99.90
5023;DHT22;2530;47.990;7.866;2023-03-23T19:51:32;15.00;99.90
5023;DHT22;2530;47.990;7.866;2023-03-23T19:53:59;15.10;99.90
5023;DHT22;2530;47.990;7.866;2023-03-23T19:56:24;15.00;1.00
5023;DHT22;2530;47.990;7.866;2023-03-23T19:58:53;15.00;1.00
5023;DHT22;2530;47.990;7.866;2023-03-23T20:01:19;14.90;57.80
5023;DHT22;2530;47.990;7.866;2023-03-23T20:03:45;14.90;1.70
5023;DHT22;2530;47.990;7.866;2023-03-23T20:06:12;14.90;97.70
5023;DHT22;2530;47.990;7.866;2023-03-23T20:08:41;14.90;1.00
5023;DHT22;2530;47.990;7.866;2023-03-23T20:11:10;14.90;99.90
5023;DHT22;2530;47.990;7.866;2023-03-23T20:13:37;15.00;99.90
5023;DHT22;2530;47.990;7.866;2023-03-23T20:16:03;15.10;99.90
5023;DHT22;2530;47.990;7.866;2023-03-23T20:18:29;15.00;1.00
5023;DHT22;2530;47.990;7.866;2023-03-23T20:21:04;15.10;1.00
5023;DHT22;2530;47.990;7.866;2023-03-23T20:23:30;15.00;1.00
5023;DHT22;2530;47.990;7.866;2023-03-23T20:26:02;15.00;1.00
5023;DHT22;2530;47.990;7.866;2023-03-23T20:28:28;14.90;93.90
5023;DHT22;2530;47.990;7.866;2023-03-23T20:31:15;14.90;1.00
5023;DHT22;2530;47.990;7.866;2023-03-23T20:33:41;14.90;31.50
5023;DHT22;2530;47.990;7.866;2023-03-23T20:36:07;15.00;99.90
5023;DHT22;2530;47.990;7.866;2023-03-23T20:38:34;14.90;99.90
5023;DHT22;2530;47.990;7.866;2023-03-23T20:41:02;14.80;48.40
5023;DHT22;2530;47.990;7.866;2023-03-23T20:43:30;14.80;1.00
5023;DHT22;2530;47.990;7.866;2023-03-23T20:46:00;14.80;99.90